Time;durP1;ratioP1;P1;durP2;ratioP2;P2;SDS_P1;SDS_P2;PMS_P1;PMS_P2;Temp;Humidity;BMP_temperature;BMP_pressure;BME280_temperature;BME280_humidity;BME280_pressure;Samples;Min_cycle;Max_cycle;Signal;HPM_P1;HPM_P2
2022/05/15 00:00:47;;;;;;;20.67;5.55;;;;;;;12.24;99.06;102119.97;5033960;28;20039;-63
2022/05/15 00:03:17;;;;;;;20.48;6.43;;;;;;;12.21;99.31;102129.81;5020117;28;20021;-63
2022/05/15 00:05:44;;;;;;;27.13;6.32;;;;;;;12.21;99.71;102124.50;5034467;28;20025;-63
2022/05/15 00:08:10;;;;;;;21.33;5.43;;;;;;;12.25;100.00;102119.06;5032439;28;20094;-63
2022/05/15 00:10:38;;;;;;;23.15;6.03;;;;;;;12.32;100.00;102126.84;5051103;28;20029;-64
2022/05/15 00:13:05;;;;;;;18.58;6.25;;;;;;;12.29;100.00;102111.88;5066630;28;20035;-64
2022/05/15 00:15:31;;;;;;;23.63;6.85;;;;;;;12.29;100.00;102117.19;5061717;28;20444;-64
2022/05/15 00:17:57;;;;;;;32.25;6.22;;;;;;;12.23;100.00;102109.41;5032420;28;20025;-64
2022/05/15 00:20:22;;;;;;;27.30;6.30;;;;;;;12.20;100.00;102097.09;5048414;28;20036;-64
2022/05/15 00:22:48;;;;;;;21.40;6.85;;;;;;;12.20;100.00;102099.75;5050784;28;20033;-62
2022/05/15 00:25:13;;;;;;;25.02;7.18;;;;;;;12.22;100.00;102084.59;5051284;28;20448;-62
2022/05/15 00:27:39;;;;;;;23.20;6.72;;;;;;;12.24;100.00;102081.94;5053381;28;20087;-62
2022/05/15 00:30:05;;;;;;;24.38;7.15;;;;;;;12.24;100.00;102085.44;5031362;28;20082;-63
2022/05/15 00:32:32;;;;;;;20.80;6.50;;;;;;;12.25;100.00;102092.50;5053267;28;20040;-62
2022/05/15 00:34:58;;;;;;;26.05;6.65;;;;;;;12.23;100.00;102094.31;5050720;28;20096;-63
2022/05/15 00:37:23;;;;;;;20.42;6.88;;;;;;;12.21;100.00;102097.94;5030905;28;20170;-62
2022/05/15 00:39:48;;;;;;;22.48;6.70;;;;;;;12.22;100.00;102097.88;5033270;28;20032;-63
2022/05/15 00:42:14;;;;;;;24.75;6.72;;;;;;;12.18;100.00;102090.94;5049706;28;20033;-63
2022/05/15 00:44:39;;;;;;;24.48;7.15;;;;;;;12.16;100.00;102089.25;5032739;28;20025;-63
2022/05/15 00:47:05;;;;;;;21.63;7.22;;;;;;;12.15;100.00;102087.50;5031495;28;20017;-63
2022/05/15 00:49:33;;;;;;;21.17;6.63;;;;;;;12.14;100.00;102086.66;5052547;28;20061;-63
2022/05/15 00:52:03;;;;;;;24.85;6.90;;;;;;;12.12;100.00;102099.97;5058445;28;20049;-63
2022/05/15 00:54:34;;;;;;;25.85;7.00;;;;;;;12.11;100.00;102098.25;5036373;28;20027;-63
2022/05/15 00:57:07;;;;;;;26.50;6.82;;;;;;;12.11;100.00;102098.25;5054316;28;20020;-63
2022/05/15 00:59:51;;;;;;;22.80;7.50;;;;;;;12.09;100.00;102093.91;5053973;28;20036;-63
2022/05/15 01:02:16;;;;;;;20.58;6.30;;;;;;;12.07;100.00;102099.25;5044131;28;20017;-64
2022/05/15 01:04:43;;;;;;;24.88;6.70;;;;;;;12.05;100.00;102092.25;5036772;28;20028;-63
2022/05/15 01:07:09;;;;;;;24.83;7.32;;;;;;;12.01;100.00;102096.78;5049470;28;20025;-64
2022/05/15 01:09:34;;;;;;;30.40;7.05;;;;;;;12.00;100.00;102092.38;5035739;28;20040;-64
2022/05/15 01:12:02;;;;;;;21.80;6.38;;;;;;;11.99;100.00;102092.44;5070407;28;20028;-64
2022/05/15 01:14:28;;;;;;;24.58;6.55;;;;;;;11.95;100.00;102087.22;5058392;28;20465;-64
2022/05/15 01:16:54;;;;;;;19.00;6.75;;;;;;;11.95;100.00;102087.22;5052798;28;20071;-64
2022/05/15 01:19:40;;;;;;;28.35;6.47;;;;;;;11.96;100.00;102094.25;5050561;28;20036;-64
2022/05/15 01:22:07;;;;;;;27.02;6.72;;;;;;;11.94;100.00;102096.06;5038279;28;20116;-64
2022/05/15 01:24:33;;;;;;;27.88;7.28;;;;;;;11.96;100.00;102088.94;5034262;28;20024;-64
2022/05/15 01:27:03;;;;;;;22.70;6.60;;;;;;;11.98;100.00;102096.00;5054944;28;20365;-64
2022/05/15 01:29:31;;;;;;;22.83;6.82;;;;;;;11.94;100.00;102095.19;5060199;28;20037;-64
2022/05/15 01:31:57;;;;;;;23.42;7.18;;;;;;;11.90;100.00;102090.91;5033007;28;20017;-64
2022/05/15 01:34:22;;;;;;;21.92;6.70;;;;;;;11.85;100.00;102085.72;5034397;28;20028;-64
2022/05/15 01:36:48;;;;;;;24.10;6.20;;;;;;;11.82;100.00;102085.81;5034945;28;20025;-64
2022/05/15 01:39:14;;;;;;;26.45;7.47;;;;;;;11.79;100.00;102081.47;5034511;28;20024;-64
2022/05/15 01:41:39;;;;;;;27.73;6.65;;;;;;;11.76;100.00;102083.34;5038783;28;20087;-64
2022/05/15 01:44:05;;;;;;;19.77;6.05;;;;;;;11.73;100.00;102079.00;5034697;28;20048;-64
2022/05/15 01:46:30;;;;;;;22.23;6.88;;;;;;;11.71;100.00;102093.22;5027059;28;20116;-64
2022/05/15 01:48:57;;;;;;;21.45;6.05;;;;;;;11.67;100.00;102073.00;5037320;28;20164;-64
2022/05/15 01:51:23;;;;;;;24.35;7.20;;;;;;;11.66;100.00;102088.03;5036226;28;20106;-64
2022/05/15 01:53:49;;;;;;;26.25;6.72;;;;;;;11.66;100.00;102087.19;5051932;28;20021;-64
2022/05/15 01:56:14;;;;;;;19.17;6.25;;;;;;;11.59;100.00;102081.19;5060244;28;20036;-63
2022/05/15 01:58:40;;;;;;;24.58;7.40;;;;;;;11.56;100.00;102081.28;5028370;28;20033;-63
2022/05/15 02:01:06;;;;;;;23.05;6.60;;;;;;;11.55;100.00;102075.13;5045986;28;20028;-65
2022/05/15 02:03:32;;;;;;;22.35;6.40;;;;;;;11.57;100.00;102078.59;5043475;28;20492;-63
2022/05/15 02:05:57;;;;;;;26.02;6.18;;;;;;;11.55;100.00;102080.41;5048711;28;20037;-62
2022/05/15 02:08:23;;;;;;;24.77;7.05;;;;;;;11.54;100.00;102088.44;5029239;28;20442;-64
2022/05/15 02:10:49;;;;;;;20.02;5.93;;;;;;;11.50;100.00;102085.00;5047273;28;20116;-64
2022/05/15 02:13:15;;;;;;;22.50;5.78;;;;;;;11.48;100.00;102081.50;5029826;28;20090;-64
2022/05/15 02:15:41;;;;;;;30.73;6.82;;;;;;;11.42;100.00;102079.91;5038851;28;20056;-63
2022/05/15 02:18:06;;;;;;;22.70;5.97;;;;;;;11.38;100.00;102085.31;5026867;28;20064;-63
2022/05/15 02:20:32;;;;;;;27.63;6.93;;;;;;;11.30;100.00;102083.78;5051428;28;20595;-63
2022/05/15 02:22:57;;;;;;;24.58;6.07;;;;;;;11.28;100.00;102079.44;5051231;28;20031;-65
2022/05/15 02:25:23;;;;;;;23.88;5.95;;;;;;;11.28;100.00;102080.28;5031446;28;20074;-63
2022/05/15 02:27:49;;;;;;;18.23;5.63;;;;;;;11.29;100.00;102066.13;5047293;28;20067;-63
2022/05/15 02:30:17;;;;;;;17.58;6.10;;;;;;;11.25;100.00;102077.72;5048542;28;20051;-63
2022/05/15 02:32:42;;;;;;;20.48;6.63;;;;;;;11.19;100.00;102077.91;5048672;28;20538;-64
2022/05/15 02:35:09;;;;;;;21.08;6.20;;;;;;;11.18;100.00;102072.63;5029768;28;20120;-63
2022/05/15 02:37:36;;;;;;;20.15;5.75;;;;;;;11.15;100.00;102071.81;5050783;28;20112;-64
2022/05/15 02:40:01;;;;;;;21.35;6.00;;;;;;;11.12;100.00;102074.53;5008557;28;20443;-63
2022/05/15 02:42:27;;;;;;;21.48;5.63;;;;;;;11.08;100.00;102069.38;5031123;28;20030;-63
2022/05/15 02:44:52;;;;;;;20.02;6.57;;;;;;;11.01;100.00;102076.63;5049670;28;20077;-64
2022/05/15 02:47:17;;;;;;;22.45;5.78;;;;;;;10.97;100.00;102078.47;5050435;28;20475;-63
2022/05/15 02:52:27;;;;;;;19.75;6.10;;;;;;;10.89;100.00;102066.34;5052242;28;20056;-64
2022/05/15 02:54:52;;;;;;;21.35;6.50;;;;;;;10.86;100.00;102075.25;5039917;28;20029;-63
2022/05/15 02:57:18;;;;;;;19.65;6.07;;;;;;;10.81;100.00;102061.25;5047486;28;20104;-64
2022/05/15 02:59:43;;;;;;;21.23;5.97;;;;;;;10.79;100.00;102065.69;5052113;28;20033;-64
2022/05/15 03:02:08;;;;;;;26.08;6.22;;;;;;;10.73;100.00;102056.16;5033471;28;20388;-64
2022/05/15 03:04:36;;;;;;;19.48;5.47;;;;;;;10.70;100.00;102058.84;5048229;28;20369;-64
2022/05/15 03:07:04;;;;;;;34.80;6.38;;;;;;;10.68;100.00;102062.44;5029174;28;20025;-64
2022/05/15 03:09:29;;;;;;;18.58;5.57;;;;;;;10.65;100.00;102052.81;5036708;28;20037;-64
2022/05/15 03:11:55;;;;;;;24.45;6.32;;;;;;;10.61;100.00;102059.09;5039477;28;20100;-64
2022/05/15 03:14:20;;;;;;;25.42;6.95;;;;;;;10.57;100.00;102060.94;5031831;28;20033;-63
2022/05/15 03:16:45;;;;;;;22.98;5.90;;;;;;;10.58;100.00;102045.94;5022167;28;20029;-64
2022/05/15 03:19:11;;;;;;;16.55;5.32;;;;;;;10.55;100.00;102041.59;5024718;28;20033;-63
2022/05/15 03:21:37;;;;;;;19.40;5.72;;;;;;;10.49;100.00;102047.91;5027837;28;20103;-64
2022/05/15 03:24:08;;;;;;;18.80;5.78;;;;;;;10.46;100.00;102049.75;5032217;28;20029;-63
2022/05/15 03:26:36;;;;;;;18.00;5.65;;;;;;;10.41;100.00;102049.00;5049847;28;20024;-63
2022/05/15 03:29:03;;;;;;;18.67;5.50;;;;;;;10.35;100.00;102044.69;5050584;28;20029;-63
2022/05/15 03:31:28;;;;;;;23.17;6.47;;;;;;;10.33;100.00;102047.41;5050595;28;20031;-63
2022/05/15 03:33:54;;;;;;;21.80;5.63;;;;;;;10.32;100.00;102040.34;5049879;28;20033;-63
2022/05/15 03:36:19;;;;;;;20.48;5.40;;;;;;;10.33;100.00;102043.84;5046160;28;20033;-64
2022/05/15 03:38:46;;;;;;;22.88;5.75;;;;;;;10.32;100.00;102027.13;5035253;28;20547;-64
2022/05/15 03:41:13;;;;;;;23.25;5.53;;;;;;;10.36;100.00;102032.34;5029157;28;20422;-64
2022/05/15 03:43:39;;;;;;;22.27;5.78;;;;;;;10.36;100.00;102027.94;5038298;28;20060;-64
2022/05/15 03:46:05;;;;;;;20.48;5.65;;;;;;;10.35;100.00;102030.59;5035041;28;20059;-64
2022/05/15 03:48:31;;;;;;;23.63;6.43;;;;;;;10.38;100.00;102035.84;5047411;28;20399;-64
2022/05/15 03:50:57;;;;;;;20.42;5.60;;;;;;;10.35;100.00;102036.75;5047916;28;20103;-64
2022/05/15 03:53:24;;;;;;;27.13;5.85;;;;;;;10.36;100.00;102033.25;5007527;28;20025;-64
2022/05/15 03:55:49;;;;;;;27.75;6.18;;;;;;;10.38;100.00;102035.84;5037316;28;20030;-64
2022/05/15 03:58:15;;;;;;;21.55;5.80;;;;;;;10.42;100.00;102037.50;5014357;28;20032;-64
2022/05/15 04:00:41;;;;;;;21.60;5.57;;;;;;;10.45;100.00;102040.94;5049159;28;20045;-64
2022/05/15 04:03:07;;;;;;;21.13;5.80;;;;;;;10.45;100.00;102045.38;5014444;28;20028;-61
2022/05/15 04:05:33;;;;;;;23.02;6.22;;;;;;;10.42;100.00;102035.75;5043779;28;20033;-63
2022/05/15 04:07:58;;;;;;;24.83;6.18;;;;;;;10.43;100.00;102034.81;5046362;28;20028;-63
2022/05/15 04:10:25;;;;;;;19.33;5.68;;;;;;;10.46;100.00;102028.56;5049927;28;20037;-63
2022/05/15 04:12:50;;;;;;;20.77;5.60;;;;;;;10.43;100.00;102029.50;5047961;28;20025;-63
2022/05/15 04:15:16;;;;;;;25.25;5.47;;;;;;;10.42;100.00;102032.19;5047218;28;20030;-62
2022/05/15 04:17:47;;;;;;;22.17;5.68;;;;;;;10.41;100.00;102034.00;5050888;28;20028;-63
2022/05/15 04:20:16;;;;;;;22.42;6.18;;;;;;;10.40;100.00;102024.31;5051393;28;20037;-64
2022/05/15 04:22:41;;;;;;;24.48;6.15;;;;;;;10.42;100.00;102040.16;5052866;28;20468;-61
2022/05/15 04:25:07;;;;;;;26.20;6.13;;;;;;;10.44;100.00;102039.19;5054919;28;20051;-62
2022/05/15 04:27:33;;;;;;;19.58;5.40;;;;;;;10.48;100.00;102027.63;5055112;28;20025;-64
2022/05/15 04:29:58;;;;;;;21.90;5.22;;;;;;;10.52;100.00;102039.00;5035712;28;20519;-64
2022/05/15 04:32:24;;;;;;;17.35;5.07;;;;;;;10.54;100.00;102042.50;5054142;28;20028;-64
2022/05/15 04:34:49;;;;;;;19.00;5.15;;;;;;;10.57;100.00;102046.84;5059783;28;20035;-62
2022/05/15 04:37:14;;;;;;;22.02;5.65;;;;;;;10.59;100.00;102048.53;5017645;28;20048;-62
2022/05/15 04:39:40;;;;;;;19.33;5.75;;;;;;;10.62;100.00;102043.16;5054415;28;20052;-63
2022/05/15 04:42:06;;;;;;;24.13;5.65;;;;;;;10.65;100.00;102043.09;5054497;28;20032;-63
2022/05/15 04:44:31;;;;;;;19.98;5.35;;;;;;;10.68;100.00;102038.59;5051797;28;20041;-63
2022/05/15 04:46:56;;;;;;;25.73;5.97;;;;;;;10.70;100.00;102040.31;5035585;28;20588;-63
2022/05/15 04:49:22;;;;;;;18.80;5.22;;;;;;;10.73;100.00;102032.31;5030314;28;20029;-63
2022/05/15 04:51:47;;;;;;;22.45;6.38;;;;;;;10.76;100.00;102018.97;5063669;28;20381;-63
2022/05/15 04:54:13;;;;;;;23.60;5.88;;;;;;;10.82;100.00;102029.41;5034831;28;21665;-63
2022/05/15 04:56:38;;;;;;;18.83;5.38;;;;;;;10.85;100.00;102033.75;5049353;28;20028;-63
2022/05/15 04:59:04;;;;;;;20.45;5.32;;;;;;;10.89;100.00;102032.75;5048708;28;20503;-63
2022/05/15 05:01:29;;;;;;;25.63;6.30;;;;;;;11.01;100.00;102033.31;5052406;28;20036;-64
2022/05/15 05:03:57;;;;;;;19.42;5.30;;;;;;;11.05;100.00;102027.91;5052082;28;20139;-63
2022/05/15 05:06:23;;;;;;;25.48;5.82;;;;;;;11.09;100.00;102034.84;5059464;28;20029;-63
2022/05/15 05:08:49;;;;;;;21.55;5.45;;;;;;;11.17;99.79;102036.44;5052109;28;20036;-63
2022/05/15 05:11:15;;;;;;;19.77;5.60;;;;;;;11.21;98.85;102036.28;5054033;28;20166;-62
2022/05/15 05:13:40;;;;;;;21.73;5.82;;;;;;;11.25;99.08;102026.47;5058770;28;20033;-63
2022/05/15 05:16:06;;;;;;;19.15;5.60;;;;;;;11.31;98.61;102031.59;5041391;28;20429;-63
2022/05/15 05:18:31;;;;;;;20.20;5.15;;;;;;;11.37;98.31;102023.47;5052374;28;20546;-63
2022/05/15 05:20:57;;;;;;;21.50;5.40;;;;;;;11.39;97.96;102032.22;5037845;28;20044;-63
2022/05/15 05:23:22;;;;;;;21.55;5.30;;;;;;;11.43;97.42;102035.66;5035226;28;20028;-62
2022/05/15 05:25:47;;;;;;;20.92;6.68;;;;;;;11.47;97.28;102024.03;5060799;28;20476;-63
2022/05/15 05:28:14;;;;;;;18.13;5.00;;;;;;;11.57;96.84;102029.97;5034133;28;20035;-63
2022/05/15 05:30:40;;;;;;;21.30;5.40;;;;;;;11.62;96.54;102023.63;5050470;28;20148;-62
2022/05/15 05:33:06;;;;;;;20.05;6.45;;;;;;;11.69;96.21;102023.41;5029828;28;20112;-62
2022/05/15 05:35:32;;;;;;;18.92;5.25;;;;;;;11.75;96.15;102025.88;5034749;28;20117;-63
2022/05/15 05:37:57;;;;;;;23.40;6.22;;;;;;;11.84;95.79;102020.31;5048704;28;20037;-62
2022/05/15 05:40:23;;;;;;;22.88;5.65;;;;;;;11.88;95.80;102029.91;5052667;28;20031;-62
2022/05/15 05:42:48;;;;;;;22.70;6.00;;;;;;;11.96;95.62;102029.69;5053193;28;20040;-63
2022/05/15 05:45:14;;;;;;;20.25;5.28;;;;;;;12.05;95.71;102032.03;5055604;28;20024;-63
2022/05/15 05:47:40;;;;;;;20.15;5.47;;;;;;;12.17;94.93;102022.81;5052254;28;20478;-63
2022/05/15 05:50:08;;;;;;;18.83;6.25;;;;;;;12.22;93.54;102025.31;5054265;28;20037;-62
2022/05/15 05:52:35;;;;;;;22.92;6.22;;;;;;;12.24;93.75;102028.81;5045574;28;20033;-62
2022/05/15 05:55:02;;;;;;;20.00;6.18;;;;;;;12.33;93.99;102031.16;5051515;28;20045;-62
2022/05/15 05:57:27;;;;;;;22.75;6.13;;;;;;;12.39;93.12;102038.03;5049633;28;20025;-63
2022/05/15 05:59:52;;;;;;;19.38;5.82;;;;;;;12.42;94.07;102032.66;5051388;28;20131;-64
2022/05/15 06:02:18;;;;;;;20.23;5.40;;;;;;;12.53;93.42;102035.81;5052144;28;20053;-63
2022/05/15 06:04:44;;;;;;;18.17;5.68;;;;;;;12.57;92.86;102034.78;5054755;28;20111;-64
2022/05/15 06:07:15;;;;;;;21.40;5.90;;;;;;;12.61;93.35;102039.06;5052860;28;20036;-64
2022/05/15 06:09:43;;;;;;;20.80;5.75;;;;;;;12.73;93.06;102039.56;5054183;28;20119;-64
2022/05/15 06:12:10;;;;;;;25.13;5.90;;;;;;;12.86;92.47;102040.84;5033822;28;20028;-64
2022/05/15 06:14:35;;;;;;;21.17;5.32;;;;;;;12.97;91.83;102034.28;5047933;28;20028;-64
2022/05/15 06:17:01;;;;;;;20.10;5.18;;;;;;;13.10;91.22;102039.09;5050551;28;20377;-64
2022/05/15 06:19:27;;;;;;;15.38;5.20;;;;;;;13.21;91.41;102046.72;5052657;28;20021;-63
2022/05/15 06:21:52;;;;;;;20.88;6.03;;;;;;;13.24;91.22;102045.75;5031547;28;20021;-62
2022/05/15 06:24:18;;;;;;;19.02;5.60;;;;;;;13.35;89.97;102048.88;5032337;28;20047;-63
2022/05/15 06:26:43;;;;;;;21.42;5.80;;;;;;;13.44;88.84;102053.03;5033372;28;20412;-62
2022/05/15 06:29:09;;;;;;;18.85;5.50;;;;;;;13.54;88.50;102045.53;5054096;28;20039;-63
2022/05/15 06:31:34;;;;;;;24.60;5.78;;;;;;;13.64;88.94;102048.72;4998414;28;20370;-64
2022/05/15 06:34:00;;;;;;;20.10;6.40;;;;;;;13.74;88.54;102042.97;5042934;28;20033;-64
2022/05/15 06:36:25;;;;;;;20.15;6.63;;;;;;;13.83;88.47;102043.56;5050921;28;20025;-64
2022/05/15 06:38:50;;;;;;;19.58;5.88;;;;;;;13.86;88.18;102046.97;5050968;28;20048;-63
2022/05/15 06:41:16;;;;;;;20.27;6.20;;;;;;;13.98;87.48;102039.41;5034302;28;20024;-63
2022/05/15 06:43:41;;;;;;;31.63;6.68;;;;;;;14.03;87.90;102042.78;5033965;28;20029;-63
2022/05/15 06:46:06;;;;;;;23.55;6.40;;;;;;;14.12;87.37;102050.38;5051518;28;20472;-63
2022/05/15 06:48:35;;;;;;;21.40;5.80;;;;;;;14.20;87.62;102045.59;5052024;28;20109;-63
2022/05/15 06:51:02;;;;;;;20.42;5.78;;;;;;;14.23;87.12;102045.50;5031881;28;20057;-64
2022/05/15 06:53:28;;;;;;;23.98;6.30;;;;;;;14.33;87.36;102037.09;5014510;28;20084;-64
2022/05/15 06:58:37;;;;;;;21.15;5.88;;;;;;;14.50;86.59;102041.72;5031770;28;20043;-64
2022/05/15 07:01:02;;;;;;;19.23;6.32;;;;;;;14.62;86.70;102041.22;5032293;28;20029;-64
2022/05/15 07:03:28;;;;;;;19.30;5.90;;;;;;;14.73;86.10;102032.78;5030897;28;20021;-64
2022/05/15 07:05:53;;;;;;;20.63;6.65;;;;;;;14.85;85.52;102031.41;5031480;28;20617;-64
2022/05/15 07:08:19;;;;;;;19.58;5.45;;;;;;;14.93;84.80;102031.91;5030648;28;20021;-64
2022/05/15 07:10:45;;;;;;;19.77;5.90;;;;;;;15.02;85.39;102031.50;5044533;28;20092;-64
2022/05/15 07:13:10;;;;;;;20.50;6.13;;;;;;;15.12;85.18;102039.09;5033437;28;20162;-64
2022/05/15 07:15:39;;;;;;;24.00;6.72;;;;;;;15.17;84.70;102037.09;5033866;28;20082;-64
2022/05/15 07:18:06;;;;;;;19.25;6.32;;;;;;;15.29;83.97;102030.31;5028582;28;20033;-64
2022/05/15 07:20:32;;;;;;;15.52;5.90;;;;;;;15.42;84.18;102041.31;5034554;28;20033;-64
2022/05/15 07:22:57;;;;;;;19.33;5.80;;;;;;;15.56;83.66;102033.50;5051366;28;20025;-64
2022/05/15 07:25:23;;;;;;;16.92;5.57;;;;;;;15.65;83.02;102034.88;5051064;28;20037;-64
2022/05/15 07:27:49;;;;;;;19.63;6.13;;;;;;;15.78;82.74;102032.50;5033536;28;20029;-64
2022/05/15 07:30:14;;;;;;;20.70;6.72;;;;;;;15.87;82.01;102049.00;5051636;28;20025;-64
2022/05/15 07:32:40;;;;;;;21.80;6.15;;;;;;;15.96;81.33;102045.00;5032142;28;20029;-64
2022/05/15 07:35:06;;;;;;;20.58;6.00;;;;;;;16.04;81.03;102039.31;5015200;28;20037;-64
2022/05/15 07:37:31;;;;;;;25.73;7.25;;;;;;;16.08;79.89;102035.53;5031496;28;20025;-64
2022/05/15 07:39:56;;;;;;;22.70;6.97;;;;;;;16.19;80.46;102032.34;4997256;28;20036;-64
2022/05/15 07:42:22;;;;;;;22.58;6.88;;;;;;;16.29;78.94;102025.59;5031675;28;20041;-63
2022/05/15 07:44:48;;;;;;;23.17;7.80;;;;;;;16.36;80.69;102027.00;4997613;28;20032;-63
2022/05/15 07:47:13;;;;;;;20.02;6.88;;;;;;;16.47;79.86;102020.25;5014592;28;20116;-63
2022/05/15 07:49:39;;;;;;;15.13;6.20;;;;;;;16.52;78.35;102028.91;5031263;28;20025;-61
2022/05/15 07:52:06;;;;;;;14.98;6.13;;;;;;;16.70;79.22;102022.63;5031345;28;20050;-63
2022/05/15 07:54:33;;;;;;;20.38;6.70;;;;;;;16.81;78.68;102016.69;5013815;28;20040;-63
2022/05/15 07:56:59;;;;;;;16.85;5.47;;;;;;;16.93;77.80;102019.69;5028810;28;20033;-62
2022/05/15 07:59:24;;;;;;;22.65;6.80;;;;;;;17.00;77.09;102029.13;5054873;28;20028;-62
2022/05/15 08:01:50;;;;;;;25.10;6.97;;;;;;;17.13;77.65;102024.00;5036883;28;20079;-62
2022/05/15 08:04:16;;;;;;;21.35;6.75;;;;;;;17.33;77.41;102023.78;5054966;28;20029;-63
2022/05/15 08:09:25;;;;;;;18.10;6.18;;;;;;;17.55;75.08;102016.38;5055473;28;20322;-63
2022/05/15 08:11:51;;;;;;;21.35;6.60;;;;;;;17.59;75.84;102002.72;5054835;28;20033;-63
2022/05/15 08:14:17;;;;;;;23.63;6.60;;;;;;;17.71;76.00;101995.84;5037293;28;20103;-63
2022/05/15 08:16:42;;;;;;;15.30;5.80;;;;;;;17.83;74.63;101997.78;5024075;28;20083;-63
2022/05/15 08:24:38;;;;;;;16.20;6.22;;;;;;;18.04;73.89;101997.53;5054529;28;20056;-63
2022/05/15 08:27:04;;;;;;;20.60;6.20;;;;;;;18.20;74.05;101988.59;5054848;28;20021;-63
2022/05/15 08:29:30;;;;;;;22.58;6.88;;;;;;;18.41;73.63;101990.00;5054370;28;20040;-62
2022/05/15 08:31:55;;;;;;;19.85;7.53;;;;;;;18.55;72.93;101981.13;5054035;28;20028;-63
2022/05/15 08:34:21;;;;;;;22.67;7.05;;;;;;;18.69;71.45;101984.81;5020012;28;20036;-63
2022/05/15 08:36:46;;;;;;;20.55;7.15;;;;;;;18.89;71.35;101989.81;5054520;28;20052;-64
2022/05/15 08:39:12;;;;;;;24.33;6.75;;;;;;;18.98;70.11;101980.34;5054330;28;20044;-64
2022/05/15 08:41:48;;;;;;;21.77;7.18;;;;;;;19.39;69.96;101976.00;5035493;28;20037;-64
2022/05/15 08:44:29;;;;;;;16.55;6.20;;;;;;;20.95;65.10;101963.75;5054559;28;20115;-64
2022/05/15 08:47:18;;;;;;;19.45;6.40;;;;;;;22.26;60.64;101972.16;5054538;28;20091;-62
2022/05/15 08:49:58;;;;;;;15.95;6.00;;;;;;;23.65;53.24;101976.53;5035109;28;20071;-63
2022/05/15 08:52:26;;;;;;;20.73;6.70;;;;;;;24.06;49.61;101976.81;5053242;28;20392;-63
2022/05/15 08:55:00;;;;;;;17.45;6.45;;;;;;;24.70;47.13;101969.56;5053746;28;20526;-62
2022/05/15 08:57:38;;;;;;;17.00;6.78;;;;;;;24.38;47.64;101987.59;5036306;28;20036;-60
2022/05/15 09:00:10;;;;;;;15.02;6.20;;;;;;;24.70;46.13;101975.00;5035843;28;20480;-62
2022/05/15 09:02:38;;;;;;;19.75;6.65;;;;;;;24.86;43.58;101964.53;5053759;28;20078;-61
2022/05/15 09:05:04;;;;;;;15.35;6.00;;;;;;;25.11;44.16;101964.22;5053742;28;20135;-62
2022/05/15 09:07:36;;;;;;;17.05;6.35;;;;;;;25.50;43.83;101969.78;5053559;28;20025;-62
2022/05/15 09:10:30;;;;;;;17.05;6.35;;;;;;;26.08;43.10;101955.41;5035184;28;20439;-62
2022/05/15 09:13:20;;;;;;;17.10;6.55;;;;;;;26.92;39.55;101964.69;5018983;28;20048;-63
2022/05/15 09:16:14;;;;;;;15.10;5.60;;;;;;;27.36;39.23;101957.75;5053578;28;20036;-63
2022/05/15 09:18:40;;;;;;;15.65;6.32;;;;;;;27.58;38.56;101951.03;5052862;28;20619;-63
2022/05/15 09:21:12;;;;;;;16.75;6.70;;;;;;;27.66;37.79;101951.13;5053083;28;20032;-63
2022/05/15 09:24:01;;;;;;;13.20;5.63;;;;;;;28.21;36.71;101944.66;5053437;28;20045;-63
2022/05/15 09:26:42;;;;;;;14.50;6.15;;;;;;;28.26;35.50;101953.22;5052838;28;20074;-63
2022/05/15 09:29:16;;;;;;;14.93;5.90;;;;;;;27.99;36.34;101961.47;5035079;28;20108;-63
2022/05/15 09:31:42;;;;;;;18.10;6.53;;;;;;;27.85;36.33;101955.53;5050952;28;20139;-63
2022/05/15 09:34:21;;;;;;;12.80;5.82;;;;;;;28.25;34.62;101956.94;5053258;28;20025;-63
2022/05/15 09:36:49;;;;;;;15.55;5.95;;;;;;;28.15;34.54;101961.63;5052891;28;20086;-63
2022/05/15 09:39:35;;;;;;;18.38;5.88;;;;;;;28.08;35.10;101957.81;5052742;28;20119;-64
2022/05/15 09:45:06;;;;;;;13.80;5.53;;;;;;;28.35;36.09;101951.41;5050990;28;20548;-64
2022/05/15 09:47:35;;;;;;;17.23;6.18;;;;;;;29.20;32.69;101949.84;5052248;28;20116;-64
2022/05/15 09:50:01;;;;;;;15.35;6.55;;;;;;;29.46;31.03;101933.38;5034448;28;20028;-64
2022/05/15 09:52:34;;;;;;;13.85;5.50;;;;;;;29.53;33.04;101944.50;5051765;28;20036;-64
2022/05/15 09:55:11;;;;;;;16.75;5.93;;;;;;;29.17;32.75;101944.69;5051701;28;20056;-63
2022/05/15 09:57:38;;;;;;;14.82;5.75;;;;;;;29.41;32.00;101950.28;5039761;28;20025;-64
2022/05/15 10:00:11;;;;;;;14.88;5.65;;;;;;;29.62;31.83;101946.22;5033054;28;20025;-63
2022/05/15 10:02:52;;;;;;;15.18;5.40;;;;;;;29.58;32.28;101951.16;5015094;28;20037;-63
2022/05/15 10:05:22;;;;;;;15.45;6.15;;;;;;;28.88;33.29;101944.06;5043664;28;20115;-64
2022/05/15 10:08:01;;;;;;;14.27;5.57;;;;;;;29.40;32.85;101942.22;5052831;28;20028;-64
2022/05/15 10:10:38;;;;;;;15.30;6.25;;;;;;;29.58;30.51;101942.13;5052410;28;20052;-66
2022/05/15 10:13:20;;;;;;;15.27;5.75;;;;;;;29.50;31.17;101942.09;5044147;28;20060;-64
2022/05/15 10:15:49;;;;;;;17.55;5.38;;;;;;;29.46;32.10;101938.84;5052567;28;20037;-64
2022/05/15 10:18:20;;;;;;;15.85;6.43;;;;;;;29.54;29.93;101919.78;5052344;28;20025;-64
2022/05/15 10:20:47;;;;;;;15.32;5.90;;;;;;;29.24;30.28;101923.94;5051537;28;20028;-63
2022/05/15 10:23:24;;;;;;;14.52;5.63;;;;;;;29.50;30.39;101937.47;5047855;28;20028;-63
2022/05/15 10:25:59;;;;;;;17.85;5.88;;;;;;;29.73;29.49;101939.56;5051974;28;20075;-63
2022/05/15 10:28:27;;;;;;;12.48;5.30;;;;;;;29.98;28.27;101925.97;5052664;28;20021;-63
2022/05/15 10:31:11;;;;;;;14.45;6.10;;;;;;;29.80;28.83;101932.41;5046891;28;20395;-63
2022/05/15 10:33:40;;;;;;;16.27;5.85;;;;;;;29.40;29.24;101923.13;5052106;28;20057;-63
2022/05/15 10:36:17;;;;;;;14.90;5.70;;;;;;;29.25;29.07;101918.31;5051062;28;20047;-63
2022/05/15 10:39:11;;;;;;;16.05;6.30;;;;;;;29.57;28.25;101924.03;5036024;28;20033;-64
2022/05/15 10:42:13;;;;;;;14.82;5.68;;;;;;;28.93;29.83;101919.91;5068338;28;20758;-63
2022/05/15 10:44:50;;;;;;;14.00;4.70;;;;;;;28.76;30.54;101920.84;5068750;28;20024;-62
2022/05/15 10:47:26;;;;;;;12.57;5.05;;;;;;;29.18;29.10;101919.97;5066488;28;20506;-62
2022/05/15 10:49:57;;;;;;;11.30;4.63;;;;;;;29.54;27.64;101914.31;5067867;28;20027;-64
2022/05/15 10:52:36;;;;;;;13.95;4.90;;;;;;;29.59;28.98;101919.25;5068586;28;20067;-63
2022/05/15 10:58:42;;;;;;;13.82;4.80;;;;;;;30.22;28.48;101905.97;5063802;28;20109;-63
2022/05/15 11:01:18;;;;;;;15.98;5.70;;;;;;;30.36;27.56;101907.13;5067026;28;20495;-62
2022/05/15 11:03:53;;;;;;;13.52;5.97;;;;;;;30.33;27.55;101908.31;5068061;28;20040;-63
2022/05/15 11:06:34;;;;;;;12.48;5.10;;;;;;;30.46;26.44;101905.06;5068599;28;20055;-63
2022/05/15 11:09:34;;;;;;;13.07;5.25;;;;;;;30.26;27.76;101901.00;5047201;28;20033;-63
2022/05/15 11:12:06;;;;;;;9.93;4.43;;;;;;;30.61;25.40;101898.91;5060538;28;20017;-63
2022/05/15 11:14:47;;;;;;;12.60;5.07;;;;;;;30.79;25.87;101894.03;5067197;28;20025;-62
2022/05/15 11:17:44;;;;;;;14.80;4.70;;;;;;;30.97;25.99;101893.78;5065773;28;20025;-62
2022/05/15 11:20:16;;;;;;;11.77;4.78;;;;;;;30.48;26.66;101894.00;5046612;28;20476;-63
2022/05/15 11:22:52;;;;;;;14.40;5.38;;;;;;;30.14;26.90;101890.47;5062127;28;20025;-63
2022/05/15 11:25:29;;;;;;;14.45;5.20;;;;;;;30.18;27.97;101885.47;5067657;28;20392;-63
2022/05/15 11:28:10;;;;;;;16.45;5.43;;;;;;;29.78;26.96;101877.13;5066826;28;20059;-62
2022/05/15 11:30:41;;;;;;;15.23;4.78;;;;;;;30.08;27.20;101872.88;5067812;28;20542;-64
2022/05/15 11:33:47;;;;;;;10.35;4.60;;;;;;;30.03;26.59;101875.25;5066943;28;20111;-63
2022/05/15 11:36:29;;;;;;;13.25;4.82;;;;;;;30.38;26.63;101875.03;5066200;28;20029;-63
2022/05/15 11:38:55;;;;;;;10.82;4.22;;;;;;;30.45;26.21;101872.44;5066477;28;20025;-63
2022/05/15 11:41:35;;;;;;;12.90;4.30;;;;;;;30.51;25.36;101858.97;5066841;28;20051;-63